sensor_id;sensor_type;location;lat;lon;timestamp;temperature;humidity
23081;DHT22;11708;50.570;8.532;2023-03-01T00:02:04;-0.20;99.90
23081;DHT22;11708;50.570;8.532;2023-03-01T00:04:30;-0.20;99.90
23081;DHT22;11708;50.570;8.532;2023-03-01T00:06:56;-0.20;99.90
23081;DHT22;11708;50.570;8.532;2023-03-01T00:09:22;-0.20;99.90
23081;DHT22;11708;50.570;8.532;2023-03-01T00:11:47;-0.20;99.90
23081;DHT22;11708;50.570;8.532;2023-03-01T00:14:13;-0.20;99.90
23081;DHT22;11708;50.570;8.532;2023-03-01T00:16:42;-0.20;99.90
23081;DHT22;11708;50.570;8.532;2023-03-01T00:19:13;-0.20;99.90
23081;DHT22;11708;50.570;8.532;2023-03-01T00:21:39;-0.20;99.90
23081;DHT22;11708;50.570;8.532;2023-03-01T00:24:05;-0.20;99.90
23081;DHT22;11708;50.570;8.532;2023-03-01T00:26:31;-0.20;99.90
23081;DHT22;11708;50.570;8.532;2023-03-01T00:28:58;-0.20;99.90
23081;DHT22;11708;50.570;8.532;2023-03-01T00:31:26;-0.20;99.90
23081;DHT22;11708;50.570;8.532;2023-03-01T00:33:53;-0.30;99.90
23081;DHT22;11708;50.570;8.532;2023-03-01T00:36:23;-0.30;99.90
23081;DHT22;11708;50.570;8.532;2023-03-01T00:38:49;-0.30;99.90
23081;DHT22;11708;50.570;8.532;2023-03-01T00:41:17;-0.30;99.90
23081;DHT22;11708;50.570;8.532;2023-03-01T00:43:43;-0.30;99.90
23081;DHT22;11708;50.570;8.532;2023-03-01T00:46:11;-0.30;99.90
23081;DHT22;11708;50.570;8.532;2023-03-01T00:48:38;-0.40;99.90
23081;DHT22;11708;50.570;8.532;2023-03-01T00:51:11;-0.40;99.90
23081;DHT22;11708;50.570;8.532;2023-03-01T00:53:38;-0.40;99.90
23081;DHT22;11708;50.570;8.532;2023-03-01T00:56:05;-0.40;99.90
23081;DHT22;11708;50.570;8.532;2023-03-01T00:58:32;-0.40;99.90
23081;DHT22;11708;50.570;8.532;2023-03-01T01:00:57;-0.40;99.90
23081;DHT22;11708;50.570;8.532;2023-03-01T01:03:23;-0.50;99.90
23081;DHT22;11708;50.570;8.532;2023-03-01T01:05:53;-0.50;99.90
23081;DHT22;11708;50.570;8.532;2023-03-01T01:08:20;-0.60;99.90
23081;DHT22;11708;50.570;8.532;2023-03-01T01:10:46;-0.60;99.90
23081;DHT22;11708;50.570;8.532;2023-03-01T01:13:12;-0.60;99.90
23081;DHT22;11708;50.570;8.532;2023-03-01T01:15:39;-0.60;99.90
23081;DHT22;11708;50.570;8.532;2023-03-01T01:18:05;-0.60;99.90
23081;DHT22;11708;50.570;8.532;2023-03-01T01:20:30;-0.70;99.90
23081;DHT22;11708;50.570;8.532;2023-03-01T01:22:56;-0.70;99.90
23081;DHT22;11708;50.570;8.532;2023-03-01T01:25:22;-0.70;99.90
23081;DHT22;11708;50.570;8.532;2023-03-01T01:27:50;-0.60;99.90
23081;DHT22;11708;50.570;8.532;2023-03-01T01:30:16;-0.70;99.90
23081;DHT22;11708;50.570;8.532;2023-03-01T01:32:42;-0.70;99.90
23081;DHT22;11708;50.570;8.532;2023-03-01T01:35:07;-0.70;99.90
23081;DHT22;11708;50.570;8.532;2023-03-01T01:37:33;-0.70;99.90
23081;DHT22;11708;50.570;8.532;2023-03-01T01:39:59;-0.70;99.90
23081;DHT22;11708;50.570;8.532;2023-03-01T01:42:25;-0.70;99.90
23081;DHT22;11708;50.570;8.532;2023-03-01T01:47:59;-0.70;99.90
23081;DHT22;11708;50.570;8.532;2023-03-01T01:50:26;-0.70;99.90
23081;DHT22;11708;50.570;8.532;2023-03-01T01:52:53;-0.70;99.90
23081;DHT22;11708;50.570;8.532;2023-03-01T01:55:24;-0.70;99.90
23081;DHT22;11708;50.570;8.532;2023-03-01T01:57:54;-0.70;99.90
23081;DHT22;11708;50.570;8.532;2023-03-01T02:00:23;-0.70;99.90
23081;DHT22;11708;50.570;8.532;2023-03-01T02:02:59;-0.70;99.90
23081;DHT22;11708;50.570;8.532;2023-03-01T02:05:34;-0.80;99.90
23081;DHT22;11708;50.570;8.532;2023-03-01T02:08:01;-0.80;99.90
23081;DHT22;11708;50.570;8.532;2023-03-01T02:10:27;-0.80;99.90
23081;DHT22;11708;50.570;8.532;2023-03-01T02:12:54;-0.80;99.90
23081;DHT22;11708;50.570;8.532;2023-03-01T02:15:22;-0.80;99.90
23081;DHT22;11708;50.570;8.532;2023-03-01T02:20:30;-0.80;99.90
23081;DHT22;11708;50.570;8.532;2023-03-01T02:25:39;-0.80;99.90
23081;DHT22;11708;50.570;8.532;2023-03-01T02:30:45;-0.80;99.90
23081;DHT22;11708;50.570;8.532;2023-03-01T02:33:32;-0.80;99.90
23081;DHT22;11708;50.570;8.532;2023-03-01T02:36:10;-0.50;99.90
23081;DHT22;11708;50.570;8.532;2023-03-01T02:38:39;-0.80;99.90
23081;DHT22;11708;50.570;8.532;2023-03-01T02:41:05;-0.80;99.90
23081;DHT22;11708;50.570;8.532;2023-03-01T02:43:33;-0.80;99.90
23081;DHT22;11708;50.570;8.532;2023-03-01T02:46:08;-0.60;99.90
23081;DHT22;11708;50.570;8.532;2023-03-01T02:48:48;-0.90;99.90
23081;DHT22;11708;50.570;8.532;2023-03-01T02:56:18;-1.00;99.90
23081;DHT22;11708;50.570;8.532;2023-03-01T02:58:44;-1.00;99.90
23081;DHT22;11708;50.570;8.532;2023-03-01T03:01:13;-1.00;99.90
23081;DHT22;11708;50.570;8.532;2023-03-01T03:03:40;-1.00;99.90
23081;DHT22;11708;50.570;8.532;2023-03-01T03:06:06;-1.00;99.90
23081;DHT22;11708;50.570;8.532;2023-03-01T03:08:32;-1.10;99.90
23081;DHT22;11708;50.570;8.532;2023-03-01T03:10:58;-1.10;99.90
23081;DHT22;11708;50.570;8.532;2023-03-01T03:13:23;-1.10;99.90
23081;DHT22;11708;50.570;8.532;2023-03-01T03:15:54;-1.10;99.90
23081;DHT22;11708;50.570;8.532;2023-03-01T03:18:20;-1.10;99.90
23081;DHT22;11708;50.570;8.532;2023-03-01T03:20:46;-1.10;99.90
23081;DHT22;11708;50.570;8.532;2023-03-01T03:23:12;-1.10;99.90
23081;DHT22;11708;50.570;8.532;2023-03-01T03:25:37;-1.10;99.90
23081;DHT22;11708;50.570;8.532;2023-03-01T03:28:04;-1.10;99.90
23081;DHT22;11708;50.570;8.532;2023-03-01T03:30:36;-1.10;99.90
23081;DHT22;11708;50.570;8.532;2023-03-01T03:33:02;-1.10;99.90
23081;DHT22;11708;50.570;8.532;2023-03-01T03:35:38;-1.10;99.90
23081;DHT22;11708;50.570;8.532;2023-03-01T03:38:06;-1.10;99.90
23081;DHT22;11708;50.570;8.532;2023-03-01T03:40:40;-1.10;99.90
23081;DHT22;11708;50.570;8.532;2023-03-01T03:43:09;-1.20;99.90
23081;DHT22;11708;50.570;8.532;2023-03-01T03:45:36;-1.20;99.90
23081;DHT22;11708;50.570;8.532;2023-03-01T03:48:03;-1.20;99.90
23081;DHT22;11708;50.570;8.532;2023-03-01T03:50:30;-1.20;99.90
23081;DHT22;11708;50.570;8.532;2023-03-01T03:52:56;-1.10;99.90
23081;DHT22;11708;50.570;8.532;2023-03-01T03:55:22;-1.10;99.90
23081;DHT22;11708;50.570;8.532;2023-03-01T03:57:48;-1.10;99.90
23081;DHT22;11708;50.570;8.532;2023-03-01T04:00:21;-1.10;99.90
23081;DHT22;11708;50.570;8.532;2023-03-01T04:02:49;-1.10;99.90
23081;DHT22;11708;50.570;8.532;2023-03-01T04:05:17;-1.10;99.90
23081;DHT22;11708;50.570;8.532;2023-03-01T04:07:44;-1.10;99.90
23081;DHT22;11708;50.570;8.532;2023-03-01T04:10:13;-1.10;99.90
23081;DHT22;11708;50.570;8.532;2023-03-01T04:12:39;-1.00;99.90
23081;DHT22;11708;50.570;8.532;2023-03-01T04:15:06;-1.00;99.90
23081;DHT22;11708;50.570;8.532;2023-03-01T04:17:46;-1.00;99.90
23081;DHT22;11708;50.570;8.532;2023-03-01T04:20:17;-1.00;99.90
23081;DHT22;11708;50.570;8.532;2023-03-01T04:22:44;-0.90;99.90
23081;DHT22;11708;50.570;8.532;2023-03-01T04:25:12;-0.90;99.90
23081;DHT22;11708;50.570;8.532;2023-03-01T04:27:40;-0.90;99.90
23081;DHT22;11708;50.570;8.532;2023-03-01T04:30:06;-0.90;99.90
23081;DHT22;11708;50.570;8.532;2023-03-01T04:32:32;-0.90;99.90
23081;DHT22;11708;50.570;8.532;2023-03-01T04:34:57;-0.90;99.90
23081;DHT22;11708;50.570;8.532;2023-03-01T04:37:23;-0.90;99.90
23081;DHT22;11708;50.570;8.532;2023-03-01T04:39:49;-0.90;99.90
23081;DHT22;11708;50.570;8.532;2023-03-01T04:42:15;-0.90;99.90
23081;DHT22;11708;50.570;8.532;2023-03-01T04:44:42;-0.90;99.90
23081;DHT22;11708;50.570;8.532;2023-03-01T04:47:08;-0.90;99.90
23081;DHT22;11708;50.570;8.532;2023-03-01T04:49:33;-0.90;99.90
23081;DHT22;11708;50.570;8.532;2023-03-01T04:51:59;-1.00;99.90
23081;DHT22;11708;50.570;8.532;2023-03-01T04:54:28;-1.00;99.90
23081;DHT22;11708;50.570;8.532;2023-03-01T04:56:55;-1.00;99.90
23081;DHT22;11708;50.570;8.532;2023-03-01T04:59:21;-1.00;99.90
23081;DHT22;11708;50.570;8.532;2023-03-01T05:01:50;-1.00;99.90
23081;DHT22;11708;50.570;8.532;2023-03-01T05:04:16;-1.10;99.90
23081;DHT22;11708;50.570;8.532;2023-03-01T05:06:42;-1.10;99.90
23081;DHT22;11708;50.570;8.532;2023-03-01T05:09:07;-1.10;99.90
23081;DHT22;11708;50.570;8.532;2023-03-01T05:11:33;-1.10;99.90
23081;DHT22;11708;50.570;8.532;2023-03-01T05:14:02;-1.10;99.90
23081;DHT22;11708;50.570;8.532;2023-03-01T05:16:27;-1.20;99.90
23081;DHT22;11708;50.570;8.532;2023-03-01T05:18:53;-1.20;99.90
23081;DHT22;11708;50.570;8.532;2023-03-01T05:21:21;-1.20;99.90
23081;DHT22;11708;50.570;8.532;2023-03-01T05:23:46;-1.20;99.90
23081;DHT22;11708;50.570;8.532;2023-03-01T05:26:12;-1.20;99.90
23081;DHT22;11708;50.570;8.532;2023-03-01T05:28:38;-1.20;99.90
23081;DHT22;11708;50.570;8.532;2023-03-01T05:31:05;-1.20;99.90
23081;DHT22;11708;50.570;8.532;2023-03-01T05:33:38;-1.30;99.90
23081;DHT22;11708;50.570;8.532;2023-03-01T05:36:05;-1.20;99.90
23081;DHT22;11708;50.570;8.532;2023-03-01T05:40:57;-1.30;99.90
23081;DHT22;11708;50.570;8.532;2023-03-01T05:43:22;-1.30;99.90
23081;DHT22;11708;50.570;8.532;2023-03-01T05:45:48;-1.30;99.90
23081;DHT22;11708;50.570;8.532;2023-03-01T05:48:14;-1.30;99.90
23081;DHT22;11708;50.570;8.532;2023-03-01T05:50:41;-1.30;99.90
23081;DHT22;11708;50.570;8.532;2023-03-01T05:53:11;-1.30;99.90
23081;DHT22;11708;50.570;8.532;2023-03-01T05:55:37;-1.30;99.90
23081;DHT22;11708;50.570;8.532;2023-03-01T05:58:09;-1.40;99.90
23081;DHT22;11708;50.570;8.532;2023-03-01T06:00:35;-1.40;99.90
23081;DHT22;11708;50.570;8.532;2023-03-01T06:03:01;-1.40;99.90
23081;DHT22;11708;50.570;8.532;2023-03-01T06:05:28;-1.40;99.90
23081;DHT22;11708;50.570;8.532;2023-03-01T06:07:54;-1.40;99.90
23081;DHT22;11708;50.570;8.532;2023-03-01T06:10:21;-1.40;99.90
23081;DHT22;11708;50.570;8.532;2023-03-01T06:15:14;-1.40;99.90
23081;DHT22;11708;50.570;8.532;2023-03-01T06:17:42;-1.40;99.90
23081;DHT22;11708;50.570;8.532;2023-03-01T06:20:13;-1.40;99.90
23081;DHT22;11708;50.570;8.532;2023-03-01T06:22:40;-1.30;99.90
23081;DHT22;11708;50.570;8.532;2023-03-01T06:25:06;-1.30;99.90
23081;DHT22;11708;50.570;8.532;2023-03-01T06:27:32;-1.30;99.90
23081;DHT22;11708;50.570;8.532;2023-03-01T06:29:57;-1.30;99.90
23081;DHT22;11708;50.570;8.532;2023-03-01T06:32:23;-1.20;99.90
23081;DHT22;11708;50.570;8.532;2023-03-01T06:34:49;-1.20;99.90
23081;DHT22;11708;50.570;8.532;2023-03-01T06:37:15;-1.20;99.90
23081;DHT22;11708;50.570;8.532;2023-03-01T06:39:41;-1.10;99.90
23081;DHT22;11708;50.570;8.532;2023-03-01T06:42:08;-1.10;99.90
23081;DHT22;11708;50.570;8.532;2023-03-01T06:44:35;-1.10;99.90
23081;DHT22;11708;50.570;8.532;2023-03-01T06:47:01;-1.00;99.90
23081;DHT22;11708;50.570;8.532;2023-03-01T06:49:27;-0.90;99.90
23081;DHT22;11708;50.570;8.532;2023-03-01T06:51:52;-0.90;99.90
23081;DHT22;11708;50.570;8.532;2023-03-01T06:54:18;-0.90;99.90
23081;DHT22;11708;50.570;8.532;2023-03-01T06:56:47;-0.80;99.90
23081;DHT22;11708;50.570;8.532;2023-03-01T06:59:13;-0.80;99.90
23081;DHT22;11708;50.570;8.532;2023-03-01T07:01:39;-0.70;99.90
23081;DHT22;11708;50.570;8.532;2023-03-01T07:06:30;-0.50;99.90
23081;DHT22;11708;50.570;8.532;2023-03-01T07:08:56;-0.40;99.90
23081;DHT22;11708;50.570;8.532;2023-03-01T07:11:21;-0.40;99.90
23081;DHT22;11708;50.570;8.532;2023-03-01T07:13:48;-0.30;99.90
23081;DHT22;11708;50.570;8.532;2023-03-01T07:16:13;-0.20;99.90
23081;DHT22;11708;50.570;8.532;2023-03-01T07:18:40;-0.20;99.90
23081;DHT22;11708;50.570;8.532;2023-03-01T07:21:07;-0.10;99.90
23081;DHT22;11708;50.570;8.532;2023-03-01T07:23:33;0.00;99.90
23081;DHT22;11708;50.570;8.532;2023-03-01T07:25:59;0.10;99.90
23081;DHT22;11708;50.570;8.532;2023-03-01T07:28:25;0.20;99.90
23081;DHT22;11708;50.570;8.532;2023-03-01T07:30:52;0.30;99.90
23081;DHT22;11708;50.570;8.532;2023-03-01T07:33:19;0.40;99.90
23081;DHT22;11708;50.570;8.532;2023-03-01T07:38:10;0.60;99.90
23081;DHT22;11708;50.570;8.532;2023-03-01T07:43:02;0.80;99.90
23081;DHT22;11708;50.570;8.532;2023-03-01T07:45:28;0.90;99.90
23081;DHT22;11708;50.570;8.532;2023-03-01T07:47:55;0.90;99.90
23081;DHT22;11708;50.570;8.532;2023-03-01T07:50:21;1.00;99.90
23081;DHT22;11708;50.570;8.532;2023-03-01T07:52:48;1.00;99.90
23081;DHT22;11708;50.570;8.532;2023-03-01T07:55:14;1.10;99.90
23081;DHT22;11708;50.570;8.532;2023-03-01T07:57:40;1.10;99.90
23081;DHT22;11708;50.570;8.532;2023-03-01T08:00:07;1.20;99.90
23081;DHT22;11708;50.570;8.532;2023-03-01T08:02:33;1.20;99.90
23081;DHT22;11708;50.570;8.532;2023-03-01T08:04:58;1.20;99.90
23081;DHT22;11708;50.570;8.532;2023-03-01T08:07:24;1.20;99.90
23081;DHT22;11708;50.570;8.532;2023-03-01T08:09:49;1.20;99.90
23081;DHT22;11708;50.570;8.532;2023-03-01T08:12:15;1.30;99.90
23081;DHT22;11708;50.570;8.532;2023-03-01T08:14:42;1.30;99.90
23081;DHT22;11708;50.570;8.532;2023-03-01T08:17:08;1.70;99.90
23081;DHT22;11708;50.570;8.532;2023-03-01T08:19:33;1.40;99.90
23081;DHT22;11708;50.570;8.532;2023-03-01T08:22:01;1.50;99.90
23081;DHT22;11708;50.570;8.532;2023-03-01T08:24:27;1.50;99.90
23081;DHT22;11708;50.570;8.532;2023-03-01T08:26:52;1.60;99.90
23081;DHT22;11708;50.570;8.532;2023-03-01T08:29:18;1.60;99.90
23081;DHT22;11708;50.570;8.532;2023-03-01T08:31:43;1.60;99.90
23081;DHT22;11708;50.570;8.532;2023-03-01T08:34:11;1.70;99.90
23081;DHT22;11708;50.570;8.532;2023-03-01T08:36:42;1.70;99.90
23081;DHT22;11708;50.570;8.532;2023-03-01T08:39:10;1.70;99.90
23081;DHT22;11708;50.570;8.532;2023-03-01T08:41:36;1.70;99.90
23081;DHT22;11708;50.570;8.532;2023-03-01T08:44:02;1.80;99.90
23081;DHT22;11708;50.570;8.532;2023-03-01T08:46:33;1.80;99.90
23081;DHT22;11708;50.570;8.532;2023-03-01T08:48:59;1.80;99.90
23081;DHT22;11708;50.570;8.532;2023-03-01T08:51:26;1.90;99.90
23081;DHT22;11708;50.570;8.532;2023-03-01T08:53:52;1.90;99.90
23081;DHT22;11708;50.570;8.532;2023-03-01T08:56:18;2.00;99.90
23081;DHT22;11708;50.570;8.532;2023-03-01T08:58:46;2.50;99.90
23081;DHT22;11708;50.570;8.532;2023-03-01T09:01:17;2.10;99.90
23081;DHT22;11708;50.570;8.532;2023-03-01T09:03:44;2.20;99.90
23081;DHT22;11708;50.570;8.532;2023-03-01T09:06:11;1.90;99.90
23081;DHT22;11708;50.570;8.532;2023-03-01T09:08:38;2.20;99.90
23081;DHT22;11708;50.570;8.532;2023-03-01T09:11:06;2.30;99.90
23081;DHT22;11708;50.570;8.532;2023-03-01T09:13:32;2.30;99.90
23081;DHT22;11708;50.570;8.532;2023-03-01T09:16:00;-0.10;99.90
23081;DHT22;11708;50.570;8.532;2023-03-01T09:18:27;2.40;99.90
23081;DHT22;11708;50.570;8.532;2023-03-01T09:20:53;2.50;99.90
23081;DHT22;11708;50.570;8.532;2023-03-01T09:23:20;2.60;99.90
23081;DHT22;11708;50.570;8.532;2023-03-01T09:25:46;2.60;99.90
23081;DHT22;11708;50.570;8.532;2023-03-01T09:28:12;2.70;99.90
23081;DHT22;11708;50.570;8.532;2023-03-01T09:30:37;2.80;99.90
23081;DHT22;11708;50.570;8.532;2023-03-01T09:33:03;2.80;99.90
23081;DHT22;11708;50.570;8.532;2023-03-01T09:35:28;2.90;99.90
23081;DHT22;11708;50.570;8.532;2023-03-01T09:37:54;2.90;99.90
23081;DHT22;11708;50.570;8.532;2023-03-01T09:40:23;2.90;99.90
23081;DHT22;11708;50.570;8.532;2023-03-01T09:45:34;3.00;99.90
23081;DHT22;11708;50.570;8.532;2023-03-01T09:48:01;3.10;99.90
23081;DHT22;11708;50.570;8.532;2023-03-01T09:50:33;3.10;99.90
23081;DHT22;11708;50.570;8.532;2023-03-01T09:53:10;3.20;99.90
23081;DHT22;11708;50.570;8.532;2023-03-01T09:55:44;3.30;99.90
23081;DHT22;11708;50.570;8.532;2023-03-01T09:58:31;3.30;99.90
23081;DHT22;11708;50.570;8.532;2023-03-01T10:06:47;4.10;99.90
23081;DHT22;11708;50.570;8.532;2023-03-01T10:09:17;3.70;99.90
23081;DHT22;11708;50.570;8.532;2023-03-01T10:11:50;3.80;99.90
23081;DHT22;11708;50.570;8.532;2023-03-01T10:14:29;3.90;99.90
23081;DHT22;11708;50.570;8.532;2023-03-01T10:16:59;4.00;99.90
23081;DHT22;11708;50.570;8.532;2023-03-01T10:19:41;4.20;99.90
23081;DHT22;11708;50.570;8.532;2023-03-01T10:22:27;4.30;99.90
23081;DHT22;11708;50.570;8.532;2023-03-01T10:24:59;4.50;99.90
23081;DHT22;11708;50.570;8.532;2023-03-01T10:27:52;4.60;99.90
23081;DHT22;11708;50.570;8.532;2023-03-01T10:30:37;4.70;99.90
23081;DHT22;11708;50.570;8.532;2023-03-01T10:33:23;5.00;99.90
23081;DHT22;11708;50.570;8.532;2023-03-01T10:35:49;5.10;99.90
23081;DHT22;11708;50.570;8.532;2023-03-01T10:38:16;5.40;99.90
23081;DHT22;11708;50.570;8.532;2023-03-01T10:41:05;5.60;99.90
23081;DHT22;11708;50.570;8.532;2023-03-01T10:43:48;5.90;99.90
23081;DHT22;11708;50.570;8.532;2023-03-01T10:46:35;5.90;99.90
23081;DHT22;11708;50.570;8.532;2023-03-01T10:49:18;6.20;99.90
23081;DHT22;11708;50.570;8.532;2023-03-01T10:51:49;6.30;99.90
23081;DHT22;11708;50.570;8.532;2023-03-01T10:54:32;6.60;99.90
23081;DHT22;11708;50.570;8.532;2023-03-01T10:57:01;6.80;99.90
23081;DHT22;11708;50.570;8.532;2023-03-01T10:59:32;8.80;99.90
23081;DHT22;11708;50.570;8.532;2023-03-01T11:02:13;7.20;99.90
23081;DHT22;11708;50.570;8.532;2023-03-01T11:05:13;7.40;99.90
23081;DHT22;11708;50.570;8.532;2023-03-01T11:07:28;7.70;99.90
23081;DHT22;11708;50.570;8.532;2023-03-01T11:09:53;7.90;99.90
23081;DHT22;11708;50.570;8.532;2023-03-01T11:12:20;8.20;99.90
23081;DHT22;11708;50.570;8.532;2023-03-01T11:15:04;8.30;99.90
23081;DHT22;11708;50.570;8.532;2023-03-01T11:17:31;8.50;99.90
23081;DHT22;11708;50.570;8.532;2023-03-01T11:20:17;8.70;99.90
23081;DHT22;11708;50.570;8.532;2023-03-01T11:22:52;8.90;99.90
23081;DHT22;11708;50.570;8.532;2023-03-01T11:25:35;9.10;99.90
23081;DHT22;11708;50.570;8.532;2023-03-01T11:28:04;9.30;99.90
23081;DHT22;11708;50.570;8.532;2023-03-01T11:35:35;10.00;99.90
23081;DHT22;11708;50.570;8.532;2023-03-01T11:40:39;10.40;99.90
23081;DHT22;11708;50.570;8.532;2023-03-01T11:43:28;10.50;99.90
23081;DHT22;11708;50.570;8.532;2023-03-01T12:10:49;11.90;94.10
23081;DHT22;11708;50.570;8.532;2023-03-01T12:18:55;12.20;92.90
23081;DHT22;11708;50.570;8.532;2023-03-01T12:46:36;14.10;79.30
23081;DHT22;11708;50.570;8.532;2023-03-01T12:49:22;13.90;78.70
23081;DHT22;11708;50.570;8.532;2023-03-01T12:52:08;14.10;79.40
23081;DHT22;11708;50.570;8.532;2023-03-01T12:54:36;14.40;79.70
23081;DHT22;11708;50.570;8.532;2023-03-01T13:00:06;14.50;76.20
23081;DHT22;11708;50.570;8.532;2023-03-01T13:08:14;15.00;75.10
23081;DHT22;11708;50.570;8.532;2023-03-01T13:10:59;15.10;76.40
23081;DHT22;11708;50.570;8.532;2023-03-01T13:13:27;15.80;72.20
23081;DHT22;11708;50.570;8.532;2023-03-01T13:15:54;15.80;72.80
23081;DHT22;11708;50.570;8.532;2023-03-01T13:20:49;16.10;70.00
23081;DHT22;11708;50.570;8.532;2023-03-01T13:26:15;16.50;68.70
23081;DHT22;11708;50.570;8.532;2023-03-01T13:33:51;16.50;67.30
23081;DHT22;11708;50.570;8.532;2023-03-01T13:41:55;16.70;64.40
23081;DHT22;11708;50.570;8.532;2023-03-01T13:49:55;16.70;61.00
23081;DHT22;11708;50.570;8.532;2023-03-01T13:52:53;16.80;60.30
23081;DHT22;11708;50.570;8.532;2023-03-01T13:55:24;16.90;58.70
23081;DHT22;11708;50.570;8.532;2023-03-01T13:57:54;16.90;59.30
23081;DHT22;11708;50.570;8.532;2023-03-01T14:00:37;16.60;60.00
23081;DHT22;11708;50.570;8.532;2023-03-01T14:03:14;16.40;59.80
23081;DHT22;11708;50.570;8.532;2023-03-01T14:05:42;16.40;60.10
23081;DHT22;11708;50.570;8.532;2023-03-01T14:08:23;16.30;59.20
23081;DHT22;11708;50.570;8.532;2023-03-01T14:19:27;17.10;59.30
23081;DHT22;11708;50.570;8.532;2023-03-01T14:24:28;16.80;58.50
23081;DHT22;11708;50.570;8.532;2023-03-01T14:26:54;16.70;58.10
23081;DHT22;11708;50.570;8.532;2023-03-01T14:29:38;16.80;59.10
23081;DHT22;11708;50.570;8.532;2023-03-01T14:32:17;17.10;59.20
23081;DHT22;11708;50.570;8.532;2023-03-01T14:34:46;17.30;59.10
23081;DHT22;11708;50.570;8.532;2023-03-01T14:37:20;17.30;58.40
23081;DHT22;11708;50.570;8.532;2023-03-01T14:39:45;16.90;57.50
23081;DHT22;11708;50.570;8.532;2023-03-01T14:42:12;16.90;57.30
23081;DHT22;11708;50.570;8.532;2023-03-01T14:44:42;17.00;57.60
23081;DHT22;11708;50.570;8.532;2023-03-01T14:47:15;17.10;56.70
23081;DHT22;11708;50.570;8.532;2023-03-01T14:49:43;17.40;56.80
23081;DHT22;11708;50.570;8.532;2023-03-01T14:52:21;17.50;57.40
23081;DHT22;11708;50.570;8.532;2023-03-01T14:54:52;17.80;57.30
23081;DHT22;11708;50.570;8.532;2023-03-01T14:57:24;17.90;57.10
23081;DHT22;11708;50.570;8.532;2023-03-01T14:59:52;17.90;55.30
23081;DHT22;11708;50.570;8.532;2023-03-01T15:02:21;17.60;55.40
23081;DHT22;11708;50.570;8.532;2023-03-01T15:04:56;17.20;54.70
23081;DHT22;11708;50.570;8.532;2023-03-01T15:07:28;17.00;55.00
23081;DHT22;11708;50.570;8.532;2023-03-01T15:09:55;16.80;54.90
23081;DHT22;11708;50.570;8.532;2023-03-01T15:12:41;16.70;55.50
23081;DHT22;11708;50.570;8.532;2023-03-01T15:17:55;16.50;54.80
23081;DHT22;11708;50.570;8.532;2023-03-01T15:20:24;16.40;54.60
23081;DHT22;11708;50.570;8.532;2023-03-01T15:22:52;16.30;53.30
23081;DHT22;11708;50.570;8.532;2023-03-01T15:25:20;16.20;54.00
23081;DHT22;11708;50.570;8.532;2023-03-01T15:27:47;16.10;53.20
23081;DHT22;11708;50.570;8.532;2023-03-01T15:30:20;16.00;65.40
23081;DHT22;11708;50.570;8.532;2023-03-01T15:32:46;15.90;54.20
23081;DHT22;11708;50.570;8.532;2023-03-01T15:35:45;15.80;55.20
23081;DHT22;11708;50.570;8.532;2023-03-01T15:38:32;15.50;55.60
23081;DHT22;11708;50.570;8.532;2023-03-01T15:41:01;15.40;56.10
23081;DHT22;11708;50.570;8.532;2023-03-01T15:43:39;15.20;56.90
23081;DHT22;11708;50.570;8.532;2023-03-01T15:46:05;15.10;70.10
23081;DHT22;11708;50.570;8.532;2023-03-01T15:48:31;14.80;57.40
23081;DHT22;11708;50.570;8.532;2023-03-01T15:50:58;14.30;58.30
23081;DHT22;11708;50.570;8.532;2023-03-01T15:53:24;14.30;58.70
23081;DHT22;11708;50.570;8.532;2023-03-01T15:55:52;14.10;58.30
23081;DHT22;11708;50.570;8.532;2023-03-01T15:58:23;13.70;58.10
23081;DHT22;11708;50.570;8.532;2023-03-01T16:00:50;13.20;58.70
23081;DHT22;11708;50.570;8.532;2023-03-01T16:03:21;13.00;59.60
23081;DHT22;11708;50.570;8.532;2023-03-01T16:05:51;12.70;60.40
23081;DHT22;11708;50.570;8.532;2023-03-01T16:08:17;12.00;61.00
23081;DHT22;11708;50.570;8.532;2023-03-01T16:10:43;12.00;61.70
23081;DHT22;11708;50.570;8.532;2023-03-01T16:13:13;11.70;61.30
23081;DHT22;11708;50.570;8.532;2023-03-01T16:15:39;11.40;62.70
23081;DHT22;11708;50.570;8.532;2023-03-01T16:18:05;11.30;63.50
23081;DHT22;11708;50.570;8.532;2023-03-01T16:20:32;10.90;63.00
23081;DHT22;11708;50.570;8.532;2023-03-01T16:22:59;10.40;63.90
23081;DHT22;11708;50.570;8.532;2023-03-01T16:25:28;10.30;64.50
23081;DHT22;11708;50.570;8.532;2023-03-01T16:27:54;10.00;65.00
23081;DHT22;11708;50.570;8.532;2023-03-01T16:30:22;9.80;64.90
23081;DHT22;11708;50.570;8.532;2023-03-01T16:32:49;10.20;65.70
23081;DHT22;11708;50.570;8.532;2023-03-01T16:35:17;9.30;65.70
23081;DHT22;11708;50.570;8.532;2023-03-01T16:37:43;9.10;66.20
23081;DHT22;11708;50.570;8.532;2023-03-01T16:40:24;8.90;66.80
23081;DHT22;11708;50.570;8.532;2023-03-01T16:42:51;8.70;76.20
23081;DHT22;11708;50.570;8.532;2023-03-01T16:45:17;8.60;67.40
23081;DHT22;11708;50.570;8.532;2023-03-01T16:47:43;8.40;68.20
23081;DHT22;11708;50.570;8.532;2023-03-01T16:50:09;8.20;68.40
23081;DHT22;11708;50.570;8.532;2023-03-01T16:52:35;8.10;68.70
23081;DHT22;11708;50.570;8.532;2023-03-01T16:55:03;8.00;68.80
23081;DHT22;11708;50.570;8.532;2023-03-01T16:57:33;7.90;69.40
23081;DHT22;11708;50.570;8.532;2023-03-01T16:59:59;7.70;70.40
23081;DHT22;11708;50.570;8.532;2023-03-01T17:02:25;7.60;70.70
23081;DHT22;11708;50.570;8.532;2023-03-01T17:04:52;7.50;71.10
23081;DHT22;11708;50.570;8.532;2023-03-01T17:07:18;7.40;71.20
23081;DHT22;11708;50.570;8.532;2023-03-01T17:12:12;7.20;72.30
23081;DHT22;11708;50.570;8.532;2023-03-01T17:14:38;7.10;73.10
23081;DHT22;11708;50.570;8.532;2023-03-01T17:17:10;7.00;73.50
23081;DHT22;11708;50.570;8.532;2023-03-01T17:19:36;7.00;74.10
23081;DHT22;11708;50.570;8.532;2023-03-01T17:22:09;6.90;74.70
23081;DHT22;11708;50.570;8.532;2023-03-01T17:24:36;6.80;75.80
23081;DHT22;11708;50.570;8.532;2023-03-01T17:27:02;6.70;75.20
23081;DHT22;11708;50.570;8.532;2023-03-01T17:34:24;6.50;76.60
23081;DHT22;11708;50.570;8.532;2023-03-01T17:36:50;6.50;77.40
23081;DHT22;11708;50.570;8.532;2023-03-01T17:39:17;6.40;78.40
23081;DHT22;11708;50.570;8.532;2023-03-01T17:41:44;6.30;79.00
23081;DHT22;11708;50.570;8.532;2023-03-01T17:44:10;6.30;79.30
23081;DHT22;11708;50.570;8.532;2023-03-01T17:46:35;6.20;80.50
23081;DHT22;11708;50.570;8.532;2023-03-01T17:51:27;6.10;81.60
23081;DHT22;11708;50.570;8.532;2023-03-01T17:53:52;6.00;83.00
23081;DHT22;11708;50.570;8.532;2023-03-01T17:56:18;6.00;84.20
23081;DHT22;11708;50.570;8.532;2023-03-01T17:58:44;5.90;84.70
23081;DHT22;11708;50.570;8.532;2023-03-01T18:01:21;5.80;85.40
23081;DHT22;11708;50.570;8.532;2023-03-01T18:03:50;5.80;86.40
23081;DHT22;11708;50.570;8.532;2023-03-01T18:06:21;5.70;87.00
23081;DHT22;11708;50.570;8.532;2023-03-01T18:08:47;5.70;89.70
23081;DHT22;11708;50.570;8.532;2023-03-01T18:11:15;5.70;89.60
23081;DHT22;11708;50.570;8.532;2023-03-01T18:13:42;5.60;89.70
23081;DHT22;11708;50.570;8.532;2023-03-01T18:16:09;5.50;98.70
23081;DHT22;11708;50.570;8.532;2023-03-01T18:18:35;5.50;90.60
23081;DHT22;11708;50.570;8.532;2023-03-01T18:21:02;5.40;90.90